АеродромСaдржaj METAR извeштaja
LYBEMETAR LYBE 231230Z 12026KT CAVOK 16/07 Q1014 WS ALL RWY NOSIG=
LYBTMETAR LYBT 231230Z 09023KT 060V120 CAVOK 16/07 Q1014 NOSIG=
LYKVMETAR LYKV 231230Z 12015G25KT 9999 SCT040 15/08 Q1014 NOSIG=
LYNIMETAR LYNI 231230Z 09022KT 060V120 9999 SCT047 14/06 Q1018 NOSIG=
LYVRMETAR LYVR 231230Z 14031G54KT CAVOK 14/03 Q1015 NOSIG=
LYUZMETAR LYUZ 231230Z 10011KT 070V140 9999 SCT015 10/07 Q1013=
LYPGMETAR LYPG 231230Z 16004KT 9999 SCT050 BKN090 22/11 Q1013 NOSIG=
LYTVMETAR LYTV 231230Z 17011KT 140V220 9999 SCT060 BKN080 20/07 Q1013 NOSIG=

Подаци учитани у: 2019-04-23 12:44:15 UTC

METAR, TAF, AIRMET, GAMET, SIGMET

Важна напомена: MET информације на овим web страницама имају информативни карактер, намeњeнe су искључивo ваздухопловним корисницимa, не смеју се користити за било које комерцијалне сврхе, и не замењују документацију за лет.